sensor_id;sensor_type;location;lat;lon;timestamp;P1;durP1;ratioP1;P2;durP2;ratioP2
73951;SDS011;62304;47.662;18.324;2023-09-30T00:01:25;23.33;;;9.93;;
73951;SDS011;62304;47.662;18.324;2023-09-30T00:04:29;18.00;;;9.43;;
73951;SDS011;62304;47.662;18.324;2023-09-30T00:07:32;19.60;;;10.13;;
73951;SDS011;62304;47.662;18.324;2023-09-30T00:10:36;23.35;;;10.32;;
73951;SDS011;62304;47.662;18.324;2023-09-30T00:13:39;19.08;;;10.20;;
73951;SDS011;62304;47.662;18.324;2023-09-30T00:16:42;20.52;;;10.40;;
73951;SDS011;62304;47.662;18.324;2023-09-30T00:19:45;17.80;;;9.73;;
73951;SDS011;62304;47.662;18.324;2023-09-30T00:22:48;16.80;;;9.73;;
73951;SDS011;62304;47.662;18.324;2023-09-30T00:25:51;19.42;;;10.02;;
73951;SDS011;62304;47.662;18.324;2023-09-30T00:28:54;18.52;;;9.50;;
73951;SDS011;62304;47.662;18.324;2023-09-30T00:31:58;17.90;;;9.75;;
73951;SDS011;62304;47.662;18.324;2023-09-30T00:35:01;17.73;;;9.43;;
73951;SDS011;62304;47.662;18.324;2023-09-30T00:38:05;15.37;;;9.70;;
73951;SDS011;62304;47.662;18.324;2023-09-30T00:41:08;19.45;;;9.90;;
73951;SDS011;62304;47.662;18.324;2023-09-30T00:44:11;17.48;;;9.52;;
73951;SDS011;62304;47.662;18.324;2023-09-30T00:47:14;20.75;;;9.25;;
73951;SDS011;62304;47.662;18.324;2023-09-30T00:50:20;19.73;;;9.52;;
73951;SDS011;62304;47.662;18.324;2023-09-30T00:53:24;21.47;;;9.40;;
73951;SDS011;62304;47.662;18.324;2023-09-30T00:56:29;17.70;;;9.18;;
73951;SDS011;62304;47.662;18.324;2023-09-30T00:59:33;16.60;;;9.45;;
73951;SDS011;62304;47.662;18.324;2023-09-30T01:02:36;19.45;;;10.43;;
73951;SDS011;62304;47.662;18.324;2023-09-30T01:05:41;19.50;;;9.82;;
73951;SDS011;62304;47.662;18.324;2023-09-30T01:08:45;18.20;;;9.20;;
73951;SDS011;62304;47.662;18.324;2023-09-30T01:11:48;19.42;;;9.85;;
73951;SDS011;62304;47.662;18.324;2023-09-30T01:14:56;18.27;;;9.85;;
73951;SDS011;62304;47.662;18.324;2023-09-30T01:18:00;17.75;;;9.80;;
73951;SDS011;62304;47.662;18.324;2023-09-30T01:21:04;15.63;;;9.35;;
73951;SDS011;62304;47.662;18.324;2023-09-30T01:24:09;19.17;;;8.70;;
73951;SDS011;62304;47.662;18.324;2023-09-30T01:27:12;16.23;;;9.25;;
73951;SDS011;62304;47.662;18.324;2023-09-30T01:30:16;19.35;;;8.77;;
73951;SDS011;62304;47.662;18.324;2023-09-30T01:33:20;15.73;;;8.85;;
73951;SDS011;62304;47.662;18.324;2023-09-30T01:36:23;13.60;;;8.18;;
73951;SDS011;62304;47.662;18.324;2023-09-30T01:39:26;16.10;;;9.00;;
73951;SDS011;62304;47.662;18.324;2023-09-30T01:42:29;18.50;;;9.07;;
73951;SDS011;62304;47.662;18.324;2023-09-30T01:45:32;16.02;;;9.15;;
73951;SDS011;62304;47.662;18.324;2023-09-30T01:48:36;16.08;;;8.23;;
73951;SDS011;62304;47.662;18.324;2023-09-30T01:51:39;12.98;;;8.07;;
73951;SDS011;62304;47.662;18.324;2023-09-30T01:54:42;18.43;;;8.17;;
73951;SDS011;62304;47.662;18.324;2023-09-30T01:57:45;13.90;;;8.43;;
73951;SDS011;62304;47.662;18.324;2023-09-30T02:00:48;14.85;;;8.63;;
73951;SDS011;62304;47.662;18.324;2023-09-30T02:03:52;13.60;;;7.55;;
73951;SDS011;62304;47.662;18.324;2023-09-30T02:06:55;13.25;;;8.57;;
73951;SDS011;62304;47.662;18.324;2023-09-30T02:09:58;13.90;;;8.17;;
73951;SDS011;62304;47.662;18.324;2023-09-30T02:13:01;16.08;;;8.85;;
73951;SDS011;62304;47.662;18.324;2023-09-30T02:16:12;16.27;;;8.48;;
73951;SDS011;62304;47.662;18.324;2023-09-30T02:19:16;12.30;;;7.82;;
73951;SDS011;62304;47.662;18.324;2023-09-30T02:22:20;13.98;;;7.82;;
73951;SDS011;62304;47.662;18.324;2023-09-30T02:25:23;13.73;;;8.13;;
73951;SDS011;62304;47.662;18.324;2023-09-30T02:28:26;14.95;;;7.60;;
73951;SDS011;62304;47.662;18.324;2023-09-30T02:31:29;13.80;;;7.85;;
73951;SDS011;62304;47.662;18.324;2023-09-30T02:34:33;13.90;;;7.60;;
73951;SDS011;62304;47.662;18.324;2023-09-30T02:37:38;13.85;;;8.25;;
73951;SDS011;62304;47.662;18.324;2023-09-30T02:40:41;19.03;;;9.13;;
73951;SDS011;62304;47.662;18.324;2023-09-30T02:43:48;16.50;;;8.05;;
73951;SDS011;62304;47.662;18.324;2023-09-30T02:47:08;14.15;;;8.02;;
73951;SDS011;62304;47.662;18.324;2023-09-30T02:50:12;13.60;;;8.30;;
73951;SDS011;62304;47.662;18.324;2023-09-30T02:53:15;14.77;;;8.23;;
73951;SDS011;62304;47.662;18.324;2023-09-30T02:56:18;14.10;;;7.70;;
73951;SDS011;62304;47.662;18.324;2023-09-30T02:59:22;11.48;;;6.65;;
73951;SDS011;62304;47.662;18.324;2023-09-30T03:02:25;12.00;;;7.43;;
73951;SDS011;62304;47.662;18.324;2023-09-30T03:05:28;15.15;;;8.38;;
73951;SDS011;62304;47.662;18.324;2023-09-30T03:08:36;15.48;;;9.60;;
73951;SDS011;62304;47.662;18.324;2023-09-30T03:11:39;15.77;;;10.90;;
73951;SDS011;62304;47.662;18.324;2023-09-30T03:14:43;14.38;;;8.45;;
73951;SDS011;62304;47.662;18.324;2023-09-30T03:17:47;14.65;;;8.70;;
73951;SDS011;62304;47.662;18.324;2023-09-30T03:20:58;14.60;;;8.05;;
73951;SDS011;62304;47.662;18.324;2023-09-30T03:24:03;13.80;;;8.63;;
73951;SDS011;62304;47.662;18.324;2023-09-30T03:27:07;12.23;;;7.57;;
73951;SDS011;62304;47.662;18.324;2023-09-30T03:30:11;11.48;;;7.35;;
73951;SDS011;62304;47.662;18.324;2023-09-30T03:33:16;12.93;;;7.32;;
73951;SDS011;62304;47.662;18.324;2023-09-30T03:36:20;15.68;;;8.32;;
73951;SDS011;62304;47.662;18.324;2023-09-30T03:39:25;14.77;;;8.40;;
73951;SDS011;62304;47.662;18.324;2023-09-30T03:42:30;14.30;;;7.80;;
73951;SDS011;62304;47.662;18.324;2023-09-30T03:45:33;12.00;;;7.40;;
73951;SDS011;62304;47.662;18.324;2023-09-30T03:48:36;15.45;;;8.50;;
73951;SDS011;62304;47.662;18.324;2023-09-30T03:51:42;13.73;;;7.35;;
73951;SDS011;62304;47.662;18.324;2023-09-30T03:54:45;13.75;;;7.78;;
73951;SDS011;62304;47.662;18.324;2023-09-30T03:57:51;16.93;;;7.80;;
73951;SDS011;62304;47.662;18.324;2023-09-30T04:00:54;16.25;;;7.68;;
73951;SDS011;62304;47.662;18.324;2023-09-30T04:03:59;16.08;;;8.93;;
73951;SDS011;62304;47.662;18.324;2023-09-30T04:07:02;13.57;;;7.50;;
73951;SDS011;62304;47.662;18.324;2023-09-30T04:10:08;18.00;;;8.60;;
73951;SDS011;62304;47.662;18.324;2023-09-30T04:13:12;15.37;;;8.13;;
73951;SDS011;62304;47.662;18.324;2023-09-30T04:16:15;13.07;;;7.15;;
73951;SDS011;62304;47.662;18.324;2023-09-30T04:19:21;16.67;;;8.35;;
73951;SDS011;62304;47.662;18.324;2023-09-30T04:22:25;19.08;;;8.85;;
73951;SDS011;62304;47.662;18.324;2023-09-30T04:25:31;15.18;;;8.70;;
73951;SDS011;62304;47.662;18.324;2023-09-30T04:28:35;16.77;;;8.20;;
73951;SDS011;62304;47.662;18.324;2023-09-30T04:31:38;15.48;;;7.65;;
73951;SDS011;62304;47.662;18.324;2023-09-30T04:34:45;20.70;;;8.18;;
73951;SDS011;62304;47.662;18.324;2023-09-30T04:37:49;13.20;;;8.23;;
73951;SDS011;62304;47.662;18.324;2023-09-30T04:40:56;16.10;;;7.95;;
73951;SDS011;62304;47.662;18.324;2023-09-30T04:44:00;15.17;;;7.77;;
73951;SDS011;62304;47.662;18.324;2023-09-30T04:47:04;17.77;;;8.05;;
73951;SDS011;62304;47.662;18.324;2023-09-30T04:50:07;14.35;;;7.32;;
73951;SDS011;62304;47.662;18.324;2023-09-30T04:53:11;16.62;;;8.70;;
73951;SDS011;62304;47.662;18.324;2023-09-30T04:56:15;16.20;;;8.77;;
73951;SDS011;62304;47.662;18.324;2023-09-30T04:59:18;15.90;;;7.87;;
73951;SDS011;62304;47.662;18.324;2023-09-30T05:02:23;17.35;;;9.07;;
73951;SDS011;62304;47.662;18.324;2023-09-30T05:05:27;14.68;;;8.70;;
73951;SDS011;62304;47.662;18.324;2023-09-30T05:08:30;13.98;;;8.48;;
73951;SDS011;62304;47.662;18.324;2023-09-30T05:11:34;16.80;;;8.75;;
73951;SDS011;62304;47.662;18.324;2023-09-30T05:14:37;23.93;;;9.73;;
73951;SDS011;62304;47.662;18.324;2023-09-30T05:17:44;18.27;;;9.27;;
73951;SDS011;62304;47.662;18.324;2023-09-30T05:20:48;20.48;;;9.55;;
73951;SDS011;62304;47.662;18.324;2023-09-30T05:23:53;17.48;;;8.65;;
73951;SDS011;62304;47.662;18.324;2023-09-30T05:26:56;21.65;;;8.55;;
73951;SDS011;62304;47.662;18.324;2023-09-30T05:30:00;16.60;;;9.20;;
73951;SDS011;62304;47.662;18.324;2023-09-30T05:33:04;19.42;;;8.63;;
73951;SDS011;62304;47.662;18.324;2023-09-30T05:36:07;15.50;;;8.80;;
73951;SDS011;62304;47.662;18.324;2023-09-30T05:39:11;17.95;;;8.90;;
73951;SDS011;62304;47.662;18.324;2023-09-30T05:42:15;18.45;;;8.32;;
73951;SDS011;62304;47.662;18.324;2023-09-30T05:45:18;18.57;;;8.83;;
73951;SDS011;62304;47.662;18.324;2023-09-30T05:48:22;18.00;;;8.70;;
73951;SDS011;62304;47.662;18.324;2023-09-30T05:51:25;18.73;;;9.27;;
73951;SDS011;62304;47.662;18.324;2023-09-30T05:54:29;18.30;;;8.68;;
73951;SDS011;62304;47.662;18.324;2023-09-30T05:57:33;18.73;;;9.10;;
73951;SDS011;62304;47.662;18.324;2023-09-30T06:00:36;18.83;;;8.40;;
73951;SDS011;62304;47.662;18.324;2023-09-30T06:03:40;15.02;;;8.80;;
73951;SDS011;62304;47.662;18.324;2023-09-30T06:06:43;15.77;;;8.93;;
73951;SDS011;62304;47.662;18.324;2023-09-30T06:09:47;20.27;;;9.15;;
73951;SDS011;62304;47.662;18.324;2023-09-30T06:12:52;16.90;;;9.40;;
73951;SDS011;62304;47.662;18.324;2023-09-30T06:15:59;11.63;;;7.60;;
73951;SDS011;62304;47.662;18.324;2023-09-30T06:19:04;16.40;;;8.52;;
73951;SDS011;62304;47.662;18.324;2023-09-30T06:22:09;18.08;;;8.55;;
73951;SDS011;62304;47.662;18.324;2023-09-30T06:25:12;16.10;;;8.55;;
73951;SDS011;62304;47.662;18.324;2023-09-30T06:28:19;17.00;;;8.68;;
73951;SDS011;62304;47.662;18.324;2023-09-30T06:31:28;12.83;;;8.07;;
73951;SDS011;62304;47.662;18.324;2023-09-30T06:34:32;14.23;;;8.68;;
73951;SDS011;62304;47.662;18.324;2023-09-30T06:37:37;14.82;;;9.15;;
73951;SDS011;62304;47.662;18.324;2023-09-30T06:40:40;14.00;;;8.77;;
73951;SDS011;62304;47.662;18.324;2023-09-30T06:43:45;22.30;;;10.52;;
73951;SDS011;62304;47.662;18.324;2023-09-30T06:46:49;17.97;;;10.17;;
73951;SDS011;62304;47.662;18.324;2023-09-30T06:49:53;19.15;;;9.95;;
73951;SDS011;62304;47.662;18.324;2023-09-30T06:52:56;15.55;;;10.20;;
73951;SDS011;62304;47.662;18.324;2023-09-30T06:55:59;15.98;;;8.85;;
73951;SDS011;62304;47.662;18.324;2023-09-30T06:59:04;17.25;;;9.63;;
73951;SDS011;62304;47.662;18.324;2023-09-30T07:02:08;16.67;;;10.00;;
73951;SDS011;62304;47.662;18.324;2023-09-30T07:05:13;17.62;;;9.52;;
73951;SDS011;62304;47.662;18.324;2023-09-30T07:08:17;19.17;;;10.15;;
73951;SDS011;62304;47.662;18.324;2023-09-30T07:11:29;19.67;;;9.50;;
73951;SDS011;62304;47.662;18.324;2023-09-30T07:14:36;24.55;;;10.18;;
73951;SDS011;62304;47.662;18.324;2023-09-30T07:17:40;16.13;;;9.83;;
73951;SDS011;62304;47.662;18.324;2023-09-30T07:20:46;16.45;;;9.50;;
73951;SDS011;62304;47.662;18.324;2023-09-30T07:23:50;19.35;;;9.65;;
73951;SDS011;62304;47.662;18.324;2023-09-30T07:26:53;14.38;;;9.85;;
73951;SDS011;62304;47.662;18.324;2023-09-30T07:29:56;18.77;;;10.48;;
73951;SDS011;62304;47.662;18.324;2023-09-30T07:32:59;18.93;;;9.53;;
73951;SDS011;62304;47.662;18.324;2023-09-30T07:36:02;20.00;;;10.52;;
73951;SDS011;62304;47.662;18.324;2023-09-30T07:39:06;15.23;;;10.25;;
73951;SDS011;62304;47.662;18.324;2023-09-30T07:42:09;18.05;;;10.32;;
73951;SDS011;62304;47.662;18.324;2023-09-30T07:45:12;17.70;;;10.27;;
73951;SDS011;62304;47.662;18.324;2023-09-30T07:48:19;15.27;;;9.63;;
73951;SDS011;62304;47.662;18.324;2023-09-30T07:51:22;15.23;;;9.57;;
73951;SDS011;62304;47.662;18.324;2023-09-30T07:54:26;18.15;;;10.10;;
73951;SDS011;62304;47.662;18.324;2023-09-30T07:57:33;14.85;;;9.70;;
73951;SDS011;62304;47.662;18.324;2023-09-30T08:00:36;15.30;;;9.25;;
73951;SDS011;62304;47.662;18.324;2023-09-30T08:03:40;14.00;;;8.87;;
73951;SDS011;62304;47.662;18.324;2023-09-30T08:06:43;15.07;;;8.77;;
73951;SDS011;62304;47.662;18.324;2023-09-30T08:09:47;16.00;;;9.23;;
73951;SDS011;62304;47.662;18.324;2023-09-30T08:12:51;13.70;;;8.68;;
73951;SDS011;62304;47.662;18.324;2023-09-30T08:15:55;14.93;;;9.73;;
73951;SDS011;62304;47.662;18.324;2023-09-30T08:18:58;14.00;;;8.67;;
73951;SDS011;62304;47.662;18.324;2023-09-30T08:22:02;15.60;;;9.20;;
73951;SDS011;62304;47.662;18.324;2023-09-30T08:25:09;15.82;;;9.13;;
73951;SDS011;62304;47.662;18.324;2023-09-30T08:28:13;13.82;;;9.55;;
73951;SDS011;62304;47.662;18.324;2023-09-30T08:31:16;16.37;;;9.57;;
73951;SDS011;62304;47.662;18.324;2023-09-30T08:34:19;17.87;;;9.47;;
73951;SDS011;62304;47.662;18.324;2023-09-30T08:37:23;14.80;;;8.95;;
73951;SDS011;62304;47.662;18.324;2023-09-30T08:40:27;14.65;;;9.45;;
73951;SDS011;62304;47.662;18.324;2023-09-30T08:43:30;14.73;;;9.43;;
73951;SDS011;62304;47.662;18.324;2023-09-30T08:46:36;14.90;;;9.50;;
73951;SDS011;62304;47.662;18.324;2023-09-30T08:49:41;14.03;;;9.40;;
73951;SDS011;62304;47.662;18.324;2023-09-30T08:52:46;15.50;;;9.40;;
73951;SDS011;62304;47.662;18.324;2023-09-30T08:55:54;15.77;;;10.40;;
73951;SDS011;62304;47.662;18.324;2023-09-30T08:58:59;14.40;;;9.65;;
73951;SDS011;62304;47.662;18.324;2023-09-30T09:02:06;16.00;;;9.18;;
73951;SDS011;62304;47.662;18.324;2023-09-30T09:05:11;15.57;;;9.80;;
73951;SDS011;62304;47.662;18.324;2023-09-30T09:08:14;14.55;;;8.90;;
73951;SDS011;62304;47.662;18.324;2023-09-30T09:11:17;13.20;;;9.35;;
73951;SDS011;62304;47.662;18.324;2023-09-30T09:14:35;14.32;;;9.93;;
73951;SDS011;62304;47.662;18.324;2023-09-30T09:17:44;14.95;;;9.18;;
73951;SDS011;62304;47.662;18.324;2023-09-30T09:20:47;16.53;;;9.10;;
73951;SDS011;62304;47.662;18.324;2023-09-30T09:23:51;12.65;;;8.50;;
73951;SDS011;62304;47.662;18.324;2023-09-30T09:27:03;19.62;;;8.52;;
73951;SDS011;62304;47.662;18.324;2023-09-30T09:30:21;12.15;;;8.50;;
73951;SDS011;62304;47.662;18.324;2023-09-30T09:33:34;12.60;;;8.38;;
73951;SDS011;62304;47.662;18.324;2023-09-30T09:36:44;12.27;;;7.97;;
73951;SDS011;62304;47.662;18.324;2023-09-30T09:39:54;14.87;;;8.82;;
73951;SDS011;62304;47.662;18.324;2023-09-30T09:43:00;13.43;;;8.43;;
73951;SDS011;62304;47.662;18.324;2023-09-30T09:46:07;14.13;;;8.18;;
73951;SDS011;62304;47.662;18.324;2023-09-30T09:49:11;13.88;;;8.27;;
73951;SDS011;62304;47.662;18.324;2023-09-30T09:52:14;13.90;;;8.47;;
73951;SDS011;62304;47.662;18.324;2023-09-30T09:55:19;14.57;;;7.20;;
73951;SDS011;62304;47.662;18.324;2023-09-30T09:58:24;13.18;;;7.97;;
73951;SDS011;62304;47.662;18.324;2023-09-30T10:01:30;14.80;;;7.35;;
73951;SDS011;62304;47.662;18.324;2023-09-30T10:04:33;13.73;;;7.68;;
73951;SDS011;62304;47.662;18.324;2023-09-30T10:07:37;16.53;;;8.37;;
73951;SDS011;62304;47.662;18.324;2023-09-30T10:10:47;15.60;;;8.55;;
73951;SDS011;62304;47.662;18.324;2023-09-30T10:13:54;12.00;;;7.45;;
73951;SDS011;62304;47.662;18.324;2023-09-30T10:17:03;13.07;;;7.75;;
73951;SDS011;62304;47.662;18.324;2023-09-30T10:20:06;13.75;;;8.52;;
73951;SDS011;62304;47.662;18.324;2023-09-30T10:23:17;17.10;;;8.13;;
73951;SDS011;62304;47.662;18.324;2023-09-30T10:26:23;13.00;;;7.60;;
73951;SDS011;62304;47.662;18.324;2023-09-30T10:29:38;15.65;;;7.93;;
73951;SDS011;62304;47.662;18.324;2023-09-30T10:35:56;12.05;;;7.22;;
73951;SDS011;62304;47.662;18.324;2023-09-30T10:38:59;15.53;;;7.77;;
73951;SDS011;62304;47.662;18.324;2023-09-30T10:42:03;14.40;;;7.20;;
73951;SDS011;62304;47.662;18.324;2023-09-30T10:45:07;14.63;;;7.87;;
73951;SDS011;62304;47.662;18.324;2023-09-30T10:51:37;16.45;;;7.90;;
73951;SDS011;62304;47.662;18.324;2023-09-30T10:54:41;15.07;;;8.03;;
73951;SDS011;62304;47.662;18.324;2023-09-30T10:57:44;13.82;;;7.78;;
73951;SDS011;62304;47.662;18.324;2023-09-30T11:00:53;13.77;;;7.78;;
73951;SDS011;62304;47.662;18.324;2023-09-30T11:03:58;14.55;;;7.90;;
73951;SDS011;62304;47.662;18.324;2023-09-30T11:07:07;12.37;;;7.35;;
73951;SDS011;62304;47.662;18.324;2023-09-30T11:10:10;13.87;;;7.97;;
73951;SDS011;62304;47.662;18.324;2023-09-30T11:13:15;16.35;;;7.78;;
73951;SDS011;62304;47.662;18.324;2023-09-30T11:16:18;15.93;;;8.23;;
73951;SDS011;62304;47.662;18.324;2023-09-30T11:19:21;16.58;;;7.87;;
73951;SDS011;62304;47.662;18.324;2023-09-30T11:22:25;12.90;;;7.95;;
73951;SDS011;62304;47.662;18.324;2023-09-30T11:25:28;14.03;;;7.77;;
73951;SDS011;62304;47.662;18.324;2023-09-30T11:28:37;40.22;;;21.70;;
73951;SDS011;62304;47.662;18.324;2023-09-30T11:31:46;41.35;;;21.85;;
73951;SDS011;62304;47.662;18.324;2023-09-30T11:34:50;39.03;;;30.42;;
73951;SDS011;62304;47.662;18.324;2023-09-30T11:37:53;34.65;;;22.73;;
73951;SDS011;62304;47.662;18.324;2023-09-30T11:44:10;21.95;;;13.50;;
73951;SDS011;62304;47.662;18.324;2023-09-30T11:47:27;45.05;;;30.08;;
73951;SDS011;62304;47.662;18.324;2023-09-30T11:50:45;36.85;;;24.10;;
73951;SDS011;62304;47.662;18.324;2023-09-30T11:53:49;32.78;;;19.87;;
73951;SDS011;62304;47.662;18.324;2023-09-30T11:56:53;61.87;;;37.63;;
73951;SDS011;62304;47.662;18.324;2023-09-30T11:59:56;57.78;;;40.45;;
73951;SDS011;62304;47.662;18.324;2023-09-30T12:02:59;22.52;;;13.88;;
73951;SDS011;62304;47.662;18.324;2023-09-30T12:06:06;21.17;;;11.30;;
73951;SDS011;62304;47.662;18.324;2023-09-30T12:09:09;20.98;;;11.38;;
73951;SDS011;62304;47.662;18.324;2023-09-30T12:12:16;19.97;;;11.80;;
73951;SDS011;62304;47.662;18.324;2023-09-30T12:15:19;17.98;;;9.20;;
73951;SDS011;62304;47.662;18.324;2023-09-30T12:18:25;19.12;;;8.98;;
73951;SDS011;62304;47.662;18.324;2023-09-30T12:21:29;27.65;;;12.93;;
73951;SDS011;62304;47.662;18.324;2023-09-30T12:24:32;32.63;;;18.45;;
73951;SDS011;62304;47.662;18.324;2023-09-30T12:27:35;20.50;;;9.97;;
73951;SDS011;62304;47.662;18.324;2023-09-30T12:30:38;16.67;;;8.55;;
73951;SDS011;62304;47.662;18.324;2023-09-30T12:33:42;18.25;;;8.57;;
73951;SDS011;62304;47.662;18.324;2023-09-30T12:36:46;16.15;;;8.77;;
73951;SDS011;62304;47.662;18.324;2023-09-30T12:39:50;21.65;;;11.57;;
73951;SDS011;62304;47.662;18.324;2023-09-30T12:42:54;44.20;;;20.97;;
73951;SDS011;62304;47.662;18.324;2023-09-30T12:45:57;27.08;;;15.38;;
73951;SDS011;62304;47.662;18.324;2023-09-30T12:49:04;21.45;;;12.48;;
73951;SDS011;62304;47.662;18.324;2023-09-30T12:52:07;21.27;;;11.95;;
73951;SDS011;62304;47.662;18.324;2023-09-30T12:55:10;20.85;;;12.43;;
73951;SDS011;62304;47.662;18.324;2023-09-30T12:58:14;21.90;;;11.37;;
73951;SDS011;62304;47.662;18.324;2023-09-30T13:01:18;20.17;;;11.35;;
73951;SDS011;62304;47.662;18.324;2023-09-30T13:04:24;19.17;;;10.35;;
73951;SDS011;62304;47.662;18.324;2023-09-30T13:07:28;18.35;;;10.70;;
73951;SDS011;62304;47.662;18.324;2023-09-30T13:10:31;28.40;;;15.55;;
73951;SDS011;62304;47.662;18.324;2023-09-30T13:13:35;17.00;;;8.80;;
73951;SDS011;62304;47.662;18.324;2023-09-30T13:16:39;22.23;;;12.07;;
73951;SDS011;62304;47.662;18.324;2023-09-30T13:19:42;25.45;;;12.25;;
73951;SDS011;62304;47.662;18.324;2023-09-30T13:22:45;26.08;;;14.93;;
73951;SDS011;62304;47.662;18.324;2023-09-30T13:25:48;21.85;;;12.57;;
73951;SDS011;62304;47.662;18.324;2023-09-30T13:28:52;21.20;;;10.43;;
73951;SDS011;62304;47.662;18.324;2023-09-30T13:31:55;19.75;;;11.45;;
73951;SDS011;62304;47.662;18.324;2023-09-30T13:34:59;20.12;;;12.23;;
73951;SDS011;62304;47.662;18.324;2023-09-30T13:38:02;21.30;;;11.85;;
73951;SDS011;62304;47.662;18.324;2023-09-30T13:41:06;18.65;;;10.13;;
73951;SDS011;62304;47.662;18.324;2023-09-30T13:44:10;22.07;;;12.10;;
73951;SDS011;62304;47.662;18.324;2023-09-30T13:47:14;18.00;;;9.98;;
73951;SDS011;62304;47.662;18.324;2023-09-30T13:50:17;20.08;;;10.50;;
73951;SDS011;62304;47.662;18.324;2023-09-30T13:53:20;21.85;;;9.90;;
73951;SDS011;62304;47.662;18.324;2023-09-30T13:56:24;17.83;;;9.82;;
73951;SDS011;62304;47.662;18.324;2023-09-30T13:59:26;17.17;;;9.43;;
73951;SDS011;62304;47.662;18.324;2023-09-30T14:02:30;15.43;;;8.35;;
73951;SDS011;62304;47.662;18.324;2023-09-30T14:05:34;17.12;;;8.73;;
73951;SDS011;62304;47.662;18.324;2023-09-30T14:08:36;19.27;;;9.73;;
73951;SDS011;62304;47.662;18.324;2023-09-30T14:11:40;20.80;;;9.93;;
73951;SDS011;62304;47.662;18.324;2023-09-30T14:14:44;24.80;;;13.10;;
73951;SDS011;62304;47.662;18.324;2023-09-30T14:17:47;19.17;;;9.48;;
73951;SDS011;62304;47.662;18.324;2023-09-30T14:20:50;19.05;;;10.02;;
73951;SDS011;62304;47.662;18.324;2023-09-30T14:23:54;17.73;;;9.13;;
73951;SDS011;62304;47.662;18.324;2023-09-30T14:26:57;17.55;;;9.15;;
73951;SDS011;62304;47.662;18.324;2023-09-30T14:30:01;17.63;;;8.77;;
73951;SDS011;62304;47.662;18.324;2023-09-30T14:33:04;17.30;;;9.13;;
73951;SDS011;62304;47.662;18.324;2023-09-30T14:36:07;17.37;;;8.98;;
73951;SDS011;62304;47.662;18.324;2023-09-30T14:39:10;17.70;;;8.85;;
73951;SDS011;62304;47.662;18.324;2023-09-30T14:42:17;16.08;;;8.75;;
73951;SDS011;62304;47.662;18.324;2023-09-30T14:45:20;16.23;;;9.07;;
73951;SDS011;62304;47.662;18.324;2023-09-30T14:48:24;32.88;;;15.82;;
73951;SDS011;62304;47.662;18.324;2023-09-30T14:51:27;23.58;;;12.95;;
73951;SDS011;62304;47.662;18.324;2023-09-30T14:54:30;20.27;;;10.40;;
73951;SDS011;62304;47.662;18.324;2023-09-30T14:57:34;19.62;;;10.80;;
73951;SDS011;62304;47.662;18.324;2023-09-30T15:00:37;17.33;;;10.33;;
73951;SDS011;62304;47.662;18.324;2023-09-30T15:03:42;17.05;;;9.35;;
73951;SDS011;62304;47.662;18.324;2023-09-30T15:06:47;17.40;;;9.32;;
73951;SDS011;62304;47.662;18.324;2023-09-30T15:09:49;17.45;;;8.93;;
73951;SDS011;62304;47.662;18.324;2023-09-30T15:12:55;17.92;;;9.10;;
73951;SDS011;62304;47.662;18.324;2023-09-30T15:15:59;15.47;;;7.97;;
73951;SDS011;62304;47.662;18.324;2023-09-30T15:19:03;14.93;;;7.82;;
73951;SDS011;62304;47.662;18.324;2023-09-30T15:22:07;15.80;;;8.10;;
73951;SDS011;62304;47.662;18.324;2023-09-30T15:25:10;15.77;;;8.40;;
73951;SDS011;62304;47.662;18.324;2023-09-30T15:28:13;14.32;;;8.27;;
73951;SDS011;62304;47.662;18.324;2023-09-30T15:31:16;14.60;;;7.90;;
73951;SDS011;62304;47.662;18.324;2023-09-30T15:34:20;13.80;;;7.37;;
73951;SDS011;62304;47.662;18.324;2023-09-30T15:37:23;12.80;;;7.65;;
73951;SDS011;62304;47.662;18.324;2023-09-30T15:40:26;16.70;;;7.62;;
73951;SDS011;62304;47.662;18.324;2023-09-30T15:43:29;13.48;;;7.70;;
73951;SDS011;62304;47.662;18.324;2023-09-30T15:46:34;14.60;;;7.43;;
73951;SDS011;62304;47.662;18.324;2023-09-30T15:49:37;14.27;;;7.10;;
73951;SDS011;62304;47.662;18.324;2023-09-30T15:52:40;10.43;;;6.10;;
73951;SDS011;62304;47.662;18.324;2023-09-30T15:55:43;10.80;;;6.10;;
73951;SDS011;62304;47.662;18.324;2023-09-30T15:58:46;14.48;;;6.35;;
73951;SDS011;62304;47.662;18.324;2023-09-30T16:01:49;12.73;;;6.00;;
73951;SDS011;62304;47.662;18.324;2023-09-30T16:04:52;11.35;;;6.00;;
73951;SDS011;62304;47.662;18.324;2023-09-30T16:07:58;9.90;;;5.75;;
73951;SDS011;62304;47.662;18.324;2023-09-30T16:11:01;10.82;;;5.28;;
73951;SDS011;62304;47.662;18.324;2023-09-30T16:14:04;9.43;;;5.03;;
73951;SDS011;62304;47.662;18.324;2023-09-30T16:17:08;10.70;;;5.60;;
73951;SDS011;62304;47.662;18.324;2023-09-30T16:20:11;10.15;;;6.10;;
73951;SDS011;62304;47.662;18.324;2023-09-30T16:23:15;10.18;;;5.68;;
73951;SDS011;62304;47.662;18.324;2023-09-30T16:26:18;10.98;;;5.85;;
73951;SDS011;62304;47.662;18.324;2023-09-30T16:29:21;10.88;;;5.28;;
73951;SDS011;62304;47.662;18.324;2023-09-30T16:32:25;10.10;;;4.93;;
73951;SDS011;62304;47.662;18.324;2023-09-30T16:35:29;8.85;;;4.78;;
73951;SDS011;62304;47.662;18.324;2023-09-30T16:38:32;7.85;;;4.93;;
73951;SDS011;62304;47.662;18.324;2023-09-30T16:41:35;7.95;;;4.25;;
73951;SDS011;62304;47.662;18.324;2023-09-30T16:44:40;7.55;;;4.55;;
73951;SDS011;62304;47.662;18.324;2023-09-30T16:47:45;7.37;;;4.00;;
73951;SDS011;62304;47.662;18.324;2023-09-30T16:50:48;8.25;;;4.50;;
73951;SDS011;62304;47.662;18.324;2023-09-30T16:53:53;7.95;;;4.32;;
73951;SDS011;62304;47.662;18.324;2023-09-30T16:56:56;9.48;;;4.72;;
73951;SDS011;62304;47.662;18.324;2023-09-30T17:00:02;7.30;;;4.90;;
73951;SDS011;62304;47.662;18.324;2023-09-30T17:03:07;7.87;;;4.53;;
73951;SDS011;62304;47.662;18.324;2023-09-30T17:06:10;7.80;;;4.12;;
73951;SDS011;62304;47.662;18.324;2023-09-30T17:09:13;7.43;;;4.60;;
73951;SDS011;62304;47.662;18.324;2023-09-30T17:12:18;7.50;;;4.37;;
73951;SDS011;62304;47.662;18.324;2023-09-30T17:15:21;7.70;;;4.57;;
73951;SDS011;62304;47.662;18.324;2023-09-30T17:18:25;8.23;;;4.23;;
73951;SDS011;62304;47.662;18.324;2023-09-30T17:21:28;8.18;;;4.32;;
73951;SDS011;62304;47.662;18.324;2023-09-30T17:24:31;6.32;;;3.87;;
73951;SDS011;62304;47.662;18.324;2023-09-30T17:27:35;9.40;;;4.35;;
73951;SDS011;62304;47.662;18.324;2023-09-30T17:30:39;9.05;;;4.10;;
73951;SDS011;62304;47.662;18.324;2023-09-30T17:33:44;6.57;;;3.60;;
73951;SDS011;62304;47.662;18.324;2023-09-30T17:36:47;6.90;;;4.05;;
73951;SDS011;62304;47.662;18.324;2023-09-30T17:39:51;6.28;;;3.65;;
73951;SDS011;62304;47.662;18.324;2023-09-30T17:42:54;7.55;;;3.90;;
73951;SDS011;62304;47.662;18.324;2023-09-30T17:45:57;12.57;;;4.30;;
73951;SDS011;62304;47.662;18.324;2023-09-30T17:49:01;10.43;;;3.63;;
73951;SDS011;62304;47.662;18.324;2023-09-30T17:52:05;8.43;;;4.28;;
73951;SDS011;62304;47.662;18.324;2023-09-30T17:55:09;8.13;;;4.43;;
73951;SDS011;62304;47.662;18.324;2023-09-30T17:58:12;9.27;;;4.55;;
73951;SDS011;62304;47.662;18.324;2023-09-30T18:01:16;7.20;;;4.20;;
73951;SDS011;62304;47.662;18.324;2023-09-30T18:04:26;9.07;;;5.03;;
73951;SDS011;62304;47.662;18.324;2023-09-30T18:07:29;7.80;;;4.50;;